createdAt,value
2023-04-12T00:03:27.532Z,68.80
2023-04-12T00:07:33.161Z,68.40
2023-04-12T00:11:38.675Z,68.90
2023-04-12T00:15:45.153Z,69.80
2023-04-12T00:19:51.034Z,69.40
2023-04-12T00:23:57.127Z,68.70
2023-04-12T00:28:02.772Z,69.00
2023-04-12T00:32:08.296Z,69.60
2023-04-12T00:36:13.824Z,69.10
2023-04-12T00:40:19.442Z,68.90
2023-04-12T00:44:24.960Z,69.30
2023-04-12T00:48:31.857Z,69.80
2023-04-12T00:52:39.208Z,69.90
2023-04-12T00:56:46.125Z,69.70
2023-04-12T01:00:52.960Z,69.60
2023-04-12T01:04:58.769Z,69.20
2023-04-12T01:09:44.808Z,69.10
2023-04-12T01:14:10.935Z,69.60
2023-04-12T01:18:23.936Z,69.70
2023-04-12T01:22:32.798Z,69.80
2023-04-12T01:26:47.995Z,69.80
2023-04-12T01:30:54.492Z,69.50
2023-04-12T01:35:03.022Z,70.00
2023-04-12T01:39:09.066Z,70.40
2023-04-12T01:43:18.278Z,70.60
2023-04-12T01:47:24.003Z,71.70
2023-04-12T01:52:09.896Z,71.40
2023-04-12T01:56:18.411Z,71.00
2023-04-12T02:00:25.226Z,70.80
2023-04-12T02:04:31.769Z,71.60
2023-04-12T02:08:37.817Z,71.90
2023-04-12T02:12:43.340Z,72.90
2023-04-12T02:16:50.776Z,72.70
2023-04-12T02:20:56.780Z,72.00
2023-04-12T02:25:02.811Z,71.80
2023-04-12T02:29:10.473Z,72.40
2023-04-12T02:33:16.052Z,72.60
2023-04-12T02:37:22.188Z,72.00
2023-04-12T02:41:27.740Z,72.80
2023-04-12T02:45:33.273Z,73.60
2023-04-12T02:49:38.779Z,73.80
2023-04-12T02:53:44.602Z,74.30
2023-04-12T02:57:50.380Z,74.30
2023-04-12T03:01:56.217Z,74.70
2023-04-12T03:06:02.279Z,75.00
2023-04-12T03:10:09.379Z,75.40
2023-04-12T03:14:15.091Z,76.10
2023-04-12T03:18:21.222Z,76.20
2023-04-12T03:22:26.816Z,76.10
2023-04-12T03:26:32.538Z,76.70
2023-04-12T03:30:38.018Z,76.60
2023-04-12T03:34:43.694Z,76.70
2023-04-12T03:38:49.187Z,76.60
2023-04-12T03:42:54.750Z,76.60
2023-04-12T03:47:00.613Z,76.70
2023-04-12T03:51:07.819Z,76.60
2023-04-12T03:55:13.775Z,76.10
2023-04-12T03:59:19.355Z,76.20
2023-04-12T04:03:27.099Z,76.20
2023-04-12T04:07:33.508Z,77.00
2023-04-12T04:11:39.052Z,76.40
2023-04-12T04:15:44.686Z,76.20
2023-04-12T04:19:50.263Z,76.10
2023-04-12T04:23:58.660Z,76.30
2023-04-12T04:28:04.567Z,76.10
2023-04-12T04:32:10.218Z,76.40
2023-04-12T04:36:16.043Z,76.30
2023-04-12T04:40:22.177Z,76.00
2023-04-12T04:44:27.767Z,75.90
2023-04-12T04:48:33.267Z,76.80
2023-04-12T04:52:39.431Z,76.00
2023-04-12T04:56:45.030Z,76.00
2023-04-12T05:00:50.628Z,75.80
2023-04-12T05:04:56.539Z,75.90
2023-04-12T05:09:02.106Z,75.80
2023-04-12T05:13:07.599Z,75.90
2023-04-12T05:17:13.176Z,75.80
2023-04-12T05:21:18.687Z,75.70
2023-04-12T05:25:24.241Z,75.50
2023-04-12T05:29:29.873Z,75.50
2023-04-12T05:33:36.784Z,75.20
2023-04-12T05:37:42.365Z,75.20
2023-04-12T05:41:47.983Z,75.00
2023-04-12T05:45:53.608Z,74.80
2023-04-12T05:49:59.430Z,74.80
2023-04-12T05:54:07.145Z,74.70
2023-04-12T05:58:12.931Z,74.50
2023-04-12T06:02:18.713Z,74.50
2023-04-12T06:06:24.410Z,74.40
2023-04-12T06:10:29.930Z,74.10
2023-04-12T06:14:35.476Z,73.90
2023-04-12T06:18:41.232Z,73.40
2023-04-12T06:22:46.915Z,73.00
2023-04-12T06:26:52.534Z,72.70
2023-04-12T06:30:58.111Z,72.60
2023-04-12T06:35:04.184Z,72.20
2023-04-12T06:39:12.222Z,71.50
2023-04-12T06:43:22.725Z,71.10
2023-04-12T06:47:28.218Z,70.30
2023-04-12T06:51:37.031Z,69.40
2023-04-12T06:55:42.493Z,69.50
2023-04-12T06:59:47.983Z,68.20
2023-04-12T07:03:53.553Z,68.30
2023-04-12T07:07:59.304Z,66.10
2023-04-12T07:12:04.874Z,66.60
2023-04-12T07:16:10.468Z,65.80
2023-04-12T07:20:17.866Z,64.90
2023-04-12T07:24:23.750Z,64.50
2023-04-12T07:28:29.390Z,63.80
2023-04-12T07:32:34.798Z,63.20
2023-04-12T07:36:40.413Z,62.90
2023-04-12T07:40:49.778Z,62.10
2023-04-12T07:44:55.709Z,62.80
2023-04-12T07:49:01.567Z,60.70
2023-04-12T07:53:27.822Z,61.20
2023-04-12T07:57:34.144Z,58.30
2023-04-12T08:01:39.873Z,60.00
2023-04-12T08:05:47.338Z,59.10
2023-04-12T08:09:53.118Z,58.70
2023-04-12T08:13:58.898Z,57.90
2023-04-12T08:18:05.017Z,58.50
2023-04-12T08:22:13.520Z,57.70
2023-04-12T08:26:19.204Z,56.80
2023-04-12T08:30:26.987Z,56.20
2023-04-12T08:34:33.182Z,55.40
2023-04-12T08:38:45.555Z,56.80
2023-04-12T08:42:53.378Z,54.30
2023-04-12T08:46:59.310Z,54.20
2023-04-12T08:51:06.321Z,53.60
2023-04-12T08:55:13.053Z,52.40
2023-04-12T08:59:19.943Z,53.50
2023-04-12T09:03:25.714Z,52.90
2023-04-12T09:07:31.341Z,53.00
2023-04-12T09:11:37.224Z,52.40
2023-04-12T09:15:51.859Z,52.20
2023-04-12T09:19:57.381Z,50.30
2023-04-12T09:24:14.784Z,50.70
2023-04-12T09:28:27.302Z,51.10
2023-04-12T09:32:32.893Z,50.30
2023-04-12T09:36:40.452Z,51.70
2023-04-12T09:40:46.046Z,50.40
2023-04-12T09:44:51.637Z,50.20
2023-04-12T09:49:03.339Z,49.50
2023-04-12T09:53:19.507Z,49.30
2023-04-12T09:57:26.614Z,48.40
2023-04-12T10:01:42.414Z,48.70
2023-04-12T10:05:48.156Z,48.00
2023-04-12T10:09:58.478Z,48.50
2023-04-12T10:14:04.099Z,48.40
2023-04-12T10:18:11.894Z,49.50
2023-04-12T10:22:18.158Z,49.60
2023-04-12T10:26:23.820Z,48.80
2023-04-12T10:30:31.652Z,48.80
2023-04-12T10:34:42.642Z,48.50
2023-04-12T10:38:48.912Z,48.70
2023-04-12T10:43:22.586Z,49.00
2023-04-12T10:47:50.266Z,47.20
2023-04-12T10:52:16.342Z,46.60
2023-04-12T10:56:32.680Z,46.80
2023-04-12T11:00:57.822Z,47.90
2023-04-12T11:05:11.518Z,47.20
2023-04-12T11:09:44.672Z,47.90
2023-04-12T11:13:56.139Z,47.50
2023-04-12T11:18:06.261Z,47.70
2023-04-12T11:22:15.029Z,47.50
2023-04-12T11:26:22.204Z,47.70
2023-04-12T11:30:27.661Z,48.40
2023-04-12T11:34:35.512Z,48.10
2023-04-12T11:38:41.654Z,48.10
2023-04-12T11:42:47.582Z,47.80
2023-04-12T11:46:53.269Z,47.80
2023-04-12T11:51:10.427Z,48.10
2023-04-12T11:55:17.991Z,48.70
2023-04-12T11:59:30.549Z,48.50
2023-04-12T12:03:36.448Z,49.10
2023-04-12T12:07:42.562Z,50.50
2023-04-12T12:11:48.459Z,49.70
2023-04-12T12:15:54.114Z,50.40
2023-04-12T12:20:01.486Z,50.60
2023-04-12T12:24:07.267Z,51.50
2023-04-12T12:28:16.391Z,51.60
2023-04-12T12:32:23.699Z,52.80
2023-04-12T12:36:35.941Z,52.50
2023-04-12T12:40:42.315Z,53.40
2023-04-12T12:44:47.939Z,54.00
2023-04-12T12:48:53.427Z,54.20
2023-04-12T12:53:03.036Z,54.30
2023-04-12T12:57:08.943Z,54.70
2023-04-12T13:01:14.606Z,55.20
2023-04-12T13:05:23.596Z,55.10
2023-04-12T13:09:32.178Z,55.60
2023-04-12T13:13:37.700Z,56.60
2023-04-12T13:17:43.349Z,56.70
2023-04-12T13:21:51.066Z,57.40
2023-04-12T13:25:57.453Z,59.20
2023-04-12T13:30:03.041Z,59.40
2023-04-12T13:34:08.632Z,60.40
2023-04-12T13:38:14.130Z,61.70
2023-04-12T13:42:20.074Z,62.40
2023-04-12T13:46:25.938Z,63.10
2023-04-12T13:50:31.548Z,63.80
2023-04-12T13:54:37.049Z,63.90
2023-04-12T13:58:43.357Z,64.40
2023-04-12T14:02:48.892Z,65.20
2023-04-12T14:06:54.505Z,65.30
2023-04-12T14:11:02.682Z,65.90
2023-04-12T14:15:09.016Z,66.10
2023-04-12T14:19:14.482Z,66.50
2023-04-12T14:23:21.708Z,67.10
2023-04-12T14:27:27.368Z,67.70
2023-04-12T14:31:34.410Z,68.40
2023-04-12T14:35:40.011Z,68.60
2023-04-12T14:39:45.648Z,68.40
2023-04-12T14:43:51.426Z,69.00
2023-04-12T14:47:57.081Z,69.30
2023-04-12T14:52:02.818Z,69.30
2023-04-12T14:56:30.502Z,69.80
2023-04-12T15:00:36.967Z,71.30
2023-04-12T15:04:42.628Z,70.30
2023-04-12T15:08:49.725Z,70.40
2023-04-12T15:12:55.296Z,70.60
2023-04-12T15:17:03.707Z,71.30
2023-04-12T15:21:10.474Z,70.80
2023-04-12T15:25:15.972Z,71.30
2023-04-12T15:29:26.767Z,71.00
2023-04-12T15:33:34.685Z,70.90
2023-04-12T15:37:40.716Z,71.10
2023-04-12T15:41:46.495Z,70.90
2023-04-12T15:45:54.578Z,71.00
2023-04-12T15:50:00.690Z,71.60
2023-04-12T15:54:06.528Z,71.60
2023-04-12T15:58:12.195Z,71.60
2023-04-12T16:02:18.072Z,71.80
2023-04-12T16:06:25.238Z,72.10
2023-04-12T16:10:30.791Z,72.20
2023-04-12T16:14:37.107Z,72.20
2023-04-12T16:18:43.105Z,72.30
2023-04-12T16:22:54.363Z,72.30
2023-04-12T16:27:00.580Z,72.60
2023-04-12T16:31:06.932Z,72.60
2023-04-12T16:35:15.003Z,72.70
2023-04-12T16:39:20.540Z,73.10
2023-04-12T16:43:26.342Z,72.60
2023-04-12T16:47:32.033Z,72.60
2023-04-12T16:51:37.842Z,72.60
2023-04-12T16:55:46.601Z,72.80
2023-04-12T16:59:52.197Z,72.80
2023-04-12T17:03:58.119Z,72.80
2023-04-12T17:08:05.673Z,72.70
2023-04-12T17:12:11.148Z,72.80
2023-04-12T17:16:17.386Z,73.00
2023-04-12T17:20:23.306Z,73.00
2023-04-12T17:24:29.463Z,73.30
2023-04-12T17:28:36.087Z,73.60
2023-04-12T17:32:41.656Z,73.50
2023-04-12T17:36:49.185Z,73.60
2023-04-12T17:40:54.825Z,73.80
2023-04-12T17:45:01.061Z,73.90
2023-04-12T17:49:07.518Z,74.00
2023-04-12T17:53:13.108Z,74.00
2023-04-12T17:57:18.686Z,74.20
2023-04-12T18:01:24.367Z,75.00
2023-04-12T18:05:29.918Z,74.70
2023-04-12T18:09:35.597Z,74.60
2023-04-12T18:13:41.042Z,74.80
2023-04-12T18:17:46.614Z,75.50
2023-04-12T18:21:52.135Z,74.90
2023-04-12T18:25:57.815Z,75.00
2023-04-12T18:30:05.033Z,75.20
2023-04-12T18:34:10.986Z,75.50
2023-04-12T18:38:17.482Z,75.30
2023-04-12T18:42:23.171Z,75.70
2023-04-12T18:46:31.809Z,75.60
2023-04-12T18:50:40.377Z,75.70
2023-04-12T18:54:45.992Z,76.00
2023-04-12T18:58:55.516Z,76.10
2023-04-12T19:03:01.964Z,76.20
2023-04-12T19:07:08.169Z,76.20
2023-04-12T19:11:14.042Z,76.30
2023-04-12T19:15:19.924Z,76.40
2023-04-12T19:19:25.625Z,76.20
2023-04-12T19:23:31.641Z,76.40
2023-04-12T19:27:39.116Z,76.20
2023-04-12T19:31:47.224Z,76.40
2023-04-12T19:35:55.812Z,76.20
2023-04-12T19:40:01.278Z,76.20
2023-04-12T19:44:06.786Z,76.30
2023-04-12T19:48:13.095Z,76.60
2023-04-12T19:52:20.707Z,76.60
2023-04-12T19:56:26.231Z,76.80
2023-04-12T20:00:31.822Z,76.70
2023-04-12T20:04:37.374Z,76.80
2023-04-12T20:08:42.907Z,76.90
2023-04-12T20:12:48.470Z,76.90
2023-04-12T20:16:58.020Z,77.20
2023-04-12T20:21:06.076Z,77.20
2023-04-12T20:25:13.015Z,77.40
2023-04-12T20:29:18.603Z,77.50
2023-04-12T20:33:24.107Z,77.60
2023-04-12T20:37:29.724Z,77.90
2023-04-12T20:41:38.517Z,77.60
2023-04-12T20:45:46.628Z,77.60
2023-04-12T20:49:52.330Z,78.20
2023-04-12T20:53:58.377Z,78.10
2023-04-12T20:58:05.304Z,78.20
2023-04-12T21:02:13.239Z,78.40
2023-04-12T21:06:18.907Z,78.30
2023-04-12T21:10:24.376Z,78.20
2023-04-12T21:14:29.972Z,78.10
2023-04-12T21:18:36.264Z,78.00
2023-04-12T21:22:44.080Z,78.00
2023-04-12T21:26:58.788Z,77.90
2023-04-12T21:31:04.885Z,78.00
2023-04-12T21:35:11.290Z,77.70
2023-04-12T21:39:17.038Z,77.50
2023-04-12T21:43:22.600Z,77.50
2023-04-12T21:47:28.784Z,77.50
2023-04-12T21:51:34.369Z,78.00
2023-04-12T21:55:40.052Z,77.30
2023-04-12T21:59:45.794Z,77.20
2023-04-12T22:03:51.392Z,76.80
2023-04-12T22:07:57.833Z,76.70
2023-04-12T22:12:06.579Z,76.60
2023-04-12T22:16:14.152Z,76.60
2023-04-12T22:20:19.797Z,76.60
2023-04-12T22:24:26.254Z,76.40
2023-04-12T22:28:31.961Z,76.40
2023-04-12T22:32:38.101Z,76.20
2023-04-12T22:36:45.027Z,76.30
2023-04-12T22:40:51.194Z,76.20
2023-04-12T22:45:00.351Z,76.00
2023-04-12T22:49:06.058Z,75.80
2023-04-12T22:53:14.281Z,75.60
2023-04-12T22:57:19.791Z,75.60
2023-04-12T23:01:25.843Z,75.50
2023-04-12T23:05:31.337Z,75.60
2023-04-12T23:09:37.435Z,75.70
2023-04-12T23:13:42.976Z,75.80
2023-04-12T23:17:50.002Z,76.00
2023-04-12T23:21:55.659Z,76.80
2023-04-12T23:26:01.222Z,76.30
2023-04-12T23:30:07.640Z,76.40
2023-04-12T23:34:13.456Z,76.60
2023-04-12T23:38:32.412Z,76.70
2023-04-12T23:42:38.278Z,76.50
2023-04-12T23:46:45.124Z,76.60
2023-04-12T23:50:51.817Z,77.30
2023-04-12T23:54:57.400Z,76.60
2023-04-12T23:59:02.912Z,76.70
